createdAt,value
2019-06-07T00:02:13.145Z,96.80
2019-06-07T00:07:54.103Z,96.80
2019-06-07T00:10:42.104Z,96.90
2019-06-07T00:14:08.610Z,97.10
2019-06-07T00:16:57.457Z,97.00
2019-06-07T00:19:45.437Z,96.90
2019-06-07T00:22:33.856Z,96.70
2019-06-07T00:25:24.473Z,96.90
2019-06-07T00:28:13.211Z,96.70
2019-06-07T00:33:50.498Z,97.10
2019-06-07T00:40:12.756Z,96.80
2019-06-07T00:48:37.451Z,96.70
2019-06-07T00:53:59.905Z,96.70
2019-06-07T00:56:40.479Z,96.70
2019-06-07T00:59:28.642Z,96.60
2019-06-07T01:02:05.500Z,96.60
2019-06-07T01:04:47.095Z,96.50
2019-06-07T01:07:28.078Z,96.50
2019-06-07T01:10:08.657Z,96.70
2019-06-07T01:12:49.038Z,96.60
2019-06-07T01:15:30.358Z,96.40
2019-06-07T01:18:37.040Z,96.10
2019-06-07T01:20:59.238Z,96.40
2019-06-07T01:24:08.745Z,96.20
2019-06-07T01:33:50.295Z,95.90
2019-06-07T01:36:24.417Z,95.90
2019-06-07T01:39:11.931Z,96.10
2019-06-07T01:48:13.231Z,96.80
2019-06-07T01:54:49.479Z,96.30
2019-06-07T01:57:31.095Z,96.70
2019-06-07T02:03:02.109Z,96.70
2019-06-07T02:05:42.767Z,96.60
2019-06-07T02:11:15.721Z,96.40
2019-06-07T02:13:45.091Z,96.00
2019-06-07T02:16:33.132Z,96.20
2019-06-07T02:19:22.014Z,96.00
2019-06-07T02:22:10.175Z,95.80
2019-06-07T02:25:34.532Z,95.70
2019-06-07T02:28:27.465Z,95.80
2019-06-07T02:30:59.848Z,95.90
2019-06-07T02:34:03.099Z,96.20
2019-06-07T02:36:39.234Z,96.30
2019-06-07T02:39:23.979Z,96.40
2019-06-07T02:45:42.774Z,96.60
2019-06-07T02:48:28.006Z,96.80
2019-06-07T02:50:57.294Z,96.70
2019-06-07T02:56:42.165Z,96.70
2019-06-07T02:59:10.264Z,96.70
2019-06-07T03:01:58.239Z,96.50
2019-06-07T03:08:30.792Z,96.60
2019-06-07T03:11:37.597Z,96.40
2019-06-07T03:24:55.951Z,96.80
2019-06-07T03:27:49.543Z,96.80
2019-06-07T03:31:01.664Z,96.50
2019-06-07T03:37:42.315Z,95.40
2019-06-07T03:40:46.003Z,94.00
2019-06-07T03:43:36.634Z,93.20
2019-06-07T03:46:23.987Z,92.80
2019-06-07T03:49:11.947Z,92.10
2019-06-07T03:55:39.085Z,92.10
2019-06-07T04:10:55.925Z,94.50
2019-06-07T04:13:24.058Z,94.80
2019-06-07T04:22:38.865Z,95.80
2019-06-07T04:29:31.553Z,95.00
2019-06-07T04:44:34.236Z,78.60
2019-06-07T04:45:50.727Z,75.90
2019-06-07T04:50:50.068Z,67.90
2019-06-07T04:54:13.794Z,66.20
2019-06-07T05:10:26.225Z,57.40
2019-06-07T05:22:03.734Z,52.10
2019-06-07T05:35:19.433Z,47.30
2019-06-07T05:45:51.267Z,46.10
2019-06-07T05:55:32.615Z,43.20
2019-06-07T06:01:47.874Z,41.30
2019-06-07T06:04:12.572Z,40.30
2019-06-07T06:06:44.750Z,39.20
2019-06-07T06:09:31.410Z,39.20
2019-06-07T06:12:02.435Z,38.50
2019-06-07T06:14:49.982Z,39.50
2019-06-07T06:17:42.755Z,38.90
2019-06-07T06:21:18.747Z,39.00
2019-06-07T06:36:13.842Z,37.00
2019-06-07T06:42:03.845Z,36.40
2019-06-07T06:48:54.745Z,37.00
2019-06-07T06:51:53.627Z,35.10
2019-06-07T06:57:19.007Z,32.50
2019-06-07T07:04:03.102Z,31.90
2019-06-07T07:13:44.468Z,32.20
2019-06-07T07:16:31.895Z,31.90
2019-06-07T07:22:54.234Z,30.60
2019-06-07T07:25:31.848Z,30.90
2019-06-07T07:32:25.245Z,31.40
2019-06-07T07:39:04.128Z,30.30
2019-06-07T07:42:12.593Z,31.20
2019-06-07T07:44:35.598Z,30.10
2019-06-07T07:47:23.538Z,29.70
2019-06-07T07:50:11.510Z,30.10
2019-06-07T07:53:17.637Z,30.70
2019-06-07T07:56:06.186Z,30.60
2019-06-07T07:59:41.978Z,30.60
2019-06-07T08:05:49.228Z,30.80
2019-06-07T08:08:38.533Z,33.40
2019-06-07T08:14:58.458Z,33.50
2019-06-07T08:18:04.328Z,32.40
2019-06-07T08:24:21.924Z,30.00
2019-06-07T08:27:24.787Z,28.80
2019-06-07T08:30:00.921Z,28.80
2019-06-07T08:35:09.918Z,26.80
2019-06-07T08:40:33.402Z,27.70
2019-06-07T08:43:20.567Z,27.40
2019-06-07T08:46:02.348Z,27.20
2019-06-07T08:48:30.007Z,27.70
2019-06-07T08:51:16.858Z,27.20
2019-06-07T08:54:21.577Z,26.70
2019-06-07T08:57:06.647Z,27.00
2019-06-07T08:59:44.398Z,26.90
2019-06-07T09:02:32.770Z,27.90
2019-06-07T09:05:20.766Z,27.50
2019-06-07T09:08:28.678Z,27.50
2019-06-07T09:10:59.564Z,29.40
2019-06-07T09:16:08.206Z,29.90
2019-06-07T09:18:43.207Z,29.90
2019-06-07T09:21:26.039Z,29.70
2019-06-07T09:24:15.703Z,30.40
2019-06-07T09:27:07.574Z,30.10
2019-06-07T09:32:47.271Z,28.90
2019-06-07T09:39:08.391Z,32.50
2019-06-07T09:41:50.516Z,32.90
2019-06-07T09:44:31.423Z,34.60
2019-06-07T09:47:19.598Z,33.10
2019-06-07T09:49:33.185Z,32.20
2019-06-07T09:52:20.868Z,33.20
2019-06-07T09:58:53.621Z,31.00
2019-06-07T10:09:56.974Z,29.50
2019-06-07T10:11:25.180Z,31.80
2019-06-07T10:17:41.190Z,35.40
2019-06-07T10:23:17.948Z,39.10
2019-06-07T10:26:06.083Z,42.30
2019-06-07T10:28:55.674Z,43.30
2019-06-07T10:31:43.624Z,45.10
2019-06-07T10:34:31.586Z,44.90
2019-06-07T10:37:19.561Z,45.40
2019-06-07T10:40:09.255Z,45.50
2019-06-07T10:42:38.739Z,47.80
2019-06-07T11:07:02.084Z,45.80
2019-06-07T11:15:24.324Z,44.80
2019-06-07T11:21:42.555Z,44.20
2019-06-07T11:24:30.887Z,44.30
2019-06-07T11:27:19.183Z,44.80
2019-06-07T11:30:26.421Z,45.00
2019-06-07T11:33:32.543Z,47.70
2019-06-07T11:40:03.500Z,48.10
2019-06-07T11:42:32.853Z,47.70
2019-06-07T11:45:43.806Z,48.30
2019-06-07T11:48:11.427Z,48.20
2019-06-07T11:55:11.545Z,49.20
2019-06-07T11:58:01.066Z,49.20
2019-06-07T12:00:33.884Z,50.00
2019-06-07T12:03:19.943Z,49.00
2019-06-07T12:06:25.463Z,48.60
2019-06-07T12:09:14.538Z,48.60
2019-06-07T12:26:58.150Z,52.60
2019-06-07T12:29:26.846Z,51.90
2019-06-07T12:31:55.968Z,51.90
2019-06-07T12:34:44.219Z,51.90
2019-06-07T12:37:43.121Z,52.50
2019-06-07T12:40:30.218Z,51.30
2019-06-07T12:43:12.485Z,50.90
2019-06-07T12:45:45.287Z,50.70
2019-06-07T12:48:16.255Z,50.80
2019-06-07T12:51:01.659Z,50.40
2019-06-07T12:53:49.601Z,49.60
2019-06-07T12:56:19.800Z,49.80
2019-06-07T12:59:08.406Z,51.40
2019-06-07T13:02:33.419Z,53.30
2019-06-07T13:05:04.716Z,54.30
2019-06-07T13:10:46.571Z,53.90
2019-06-07T13:17:12.857Z,54.30
2019-06-07T13:20:00.931Z,54.20
2019-06-07T13:25:41.127Z,52.80
2019-06-07T13:31:44.218Z,53.60
2019-06-07T13:34:32.231Z,54.10
2019-06-07T13:37:21.130Z,53.60
2019-06-07T13:40:09.186Z,53.70
2019-06-07T13:46:41.428Z,54.90
2019-06-07T13:49:29.369Z,55.10
2019-06-07T13:52:35.111Z,54.60
2019-06-07T13:59:39.216Z,53.30
2019-06-07T14:13:23.636Z,54.20
2019-06-07T14:23:01.695Z,54.30
2019-06-07T14:25:49.659Z,54.70
2019-06-07T14:28:37.742Z,54.60
2019-06-07T14:31:17.605Z,54.30
2019-06-07T14:34:05.669Z,54.20
2019-06-07T14:36:53.964Z,54.50
2019-06-07T14:39:42.052Z,54.50
2019-06-07T14:42:31.305Z,54.50
2019-06-07T14:45:20.894Z,55.20
2019-06-07T14:48:09.044Z,55.20
2019-06-07T14:54:08.411Z,55.40
2019-06-07T14:56:56.472Z,54.70
2019-06-07T15:00:10.461Z,54.70
2019-06-07T15:02:51.980Z,54.70
2019-06-07T15:05:40.594Z,54.90
2019-06-07T15:09:04.198Z,54.40
2019-06-07T15:11:52.184Z,54.40
2019-06-07T15:17:47.823Z,54.40
2019-06-07T15:20:47.341Z,55.00
2019-06-07T15:23:27.030Z,55.00
2019-06-07T15:29:09.630Z,55.60
2019-06-07T15:35:21.244Z,54.30
2019-06-07T15:38:02.519Z,54.80
2019-06-07T15:40:43.207Z,54.80
2019-06-07T15:43:23.814Z,55.30
2019-06-07T15:46:04.401Z,55.60
2019-06-07T15:48:33.971Z,55.60
2019-06-07T15:51:21.991Z,55.30
2019-06-07T15:54:09.994Z,55.00
2019-06-07T15:59:51.842Z,55.30
2019-06-07T16:02:39.977Z,55.40
2019-06-07T16:05:27.909Z,55.20
2019-06-07T16:08:34.341Z,55.90
2019-06-07T16:11:22.394Z,55.50
2019-06-07T16:14:10.463Z,55.00
2019-06-07T16:17:16.297Z,54.70
2019-06-07T16:26:14.010Z,55.40
2019-06-07T16:32:29.983Z,55.70
2019-06-07T16:35:17.995Z,56.10
2019-06-07T16:38:23.642Z,55.80
2019-06-07T16:55:06.327Z,55.80
2019-06-07T16:57:46.912Z,55.80
2019-06-07T17:00:31.232Z,56.20
2019-06-07T17:03:12.348Z,56.60
2019-06-07T17:05:53.818Z,56.60
2019-06-07T17:08:34.454Z,57.10
2019-06-07T17:11:15.499Z,56.30
2019-06-07T17:13:56.565Z,56.10
2019-06-07T17:16:38.742Z,56.10
2019-06-07T17:19:19.271Z,56.50
2019-06-07T17:22:00.219Z,56.80
2019-06-07T17:25:00.118Z,57.10
2019-06-07T17:27:41.995Z,57.30
2019-06-07T17:30:22.820Z,57.20
2019-06-07T17:36:07.415Z,57.80
2019-06-07T17:38:36.896Z,57.70
2019-06-07T17:41:06.054Z,57.90
2019-06-07T17:43:48.439Z,58.50
2019-06-07T17:46:26.727Z,58.80
2019-06-07T17:49:15.062Z,58.90
2019-06-07T17:52:03.015Z,59.30
2019-06-07T17:54:52.256Z,59.30
2019-06-07T17:57:40.747Z,59.80
2019-06-07T18:00:53.810Z,60.20
2019-06-07T18:03:42.985Z,60.10
2019-06-07T18:06:31.506Z,60.50
2019-06-07T18:09:19.614Z,61.10
2019-06-07T18:14:41.944Z,62.00
2019-06-07T18:17:10.919Z,62.10
2019-06-07T18:19:59.123Z,62.60
2019-06-07T18:22:47.506Z,62.90
2019-06-07T18:25:35.598Z,63.30
2019-06-07T18:29:00.599Z,63.50
2019-06-07T18:31:48.763Z,64.00
2019-06-07T18:37:30.655Z,65.00
2019-06-07T18:43:18.934Z,66.70
2019-06-07T18:48:41.316Z,66.80
2019-06-07T18:54:40.428Z,67.70
2019-06-07T19:03:39.677Z,69.90
2019-06-07T19:06:27.693Z,69.70
2019-06-07T19:12:09.527Z,70.60
2019-06-07T19:14:57.720Z,71.30
2019-06-07T19:17:45.838Z,72.80
2019-06-07T19:20:35.799Z,72.60
2019-06-07T19:23:24.083Z,73.10
2019-06-07T19:26:12.745Z,73.60
2019-06-07T19:29:01.003Z,74.10
2019-06-07T19:34:42.551Z,75.10
2019-06-07T19:37:31.115Z,75.70
2019-06-07T19:40:00.178Z,76.20
2019-06-07T19:42:49.731Z,76.80
2019-06-07T19:45:37.665Z,77.10
2019-06-07T19:48:25.638Z,77.80
2019-06-07T19:51:13.573Z,78.20
2019-06-07T19:54:01.823Z,78.90
2019-06-07T19:56:53.715Z,79.50
2019-06-07T19:59:41.862Z,80.20
2019-06-07T20:02:22.809Z,80.90
2019-06-07T20:05:06.545Z,81.50
2019-06-07T20:07:45.612Z,81.90
2019-06-07T20:10:26.294Z,82.30
2019-06-07T20:13:06.971Z,82.80
2019-06-07T20:15:48.231Z,83.50
2019-06-07T20:21:11.131Z,84.70
2019-06-07T20:23:52.251Z,85.30
2019-06-07T20:26:33.176Z,85.70
2019-06-07T20:31:56.233Z,86.70
2019-06-07T20:34:36.808Z,87.10
2019-06-07T20:37:17.962Z,87.50
2019-06-07T20:40:05.988Z,88.00
2019-06-07T20:45:45.184Z,88.60
2019-06-07T20:48:25.828Z,88.90
2019-06-07T20:54:12.002Z,89.20
2019-06-07T20:56:52.902Z,89.50
2019-06-07T21:02:38.488Z,89.90
2019-06-07T21:05:19.103Z,90.00
2019-06-07T21:08:01.375Z,90.20
2019-06-07T21:10:42.022Z,90.30
2019-06-07T21:13:23.640Z,90.50
2019-06-07T21:16:06.064Z,90.70
2019-06-07T21:18:47.507Z,90.80
2019-06-07T21:27:50.437Z,91.20
2019-06-07T21:30:38.461Z,91.40
2019-06-07T21:33:26.474Z,91.50
2019-06-07T21:36:14.437Z,91.60
2019-06-07T21:39:02.452Z,91.70
2019-06-07T21:41:50.676Z,92.00
2019-06-07T21:44:56.562Z,92.10
2019-06-07T21:47:44.538Z,92.20
2019-06-07T21:50:33.030Z,92.50
2019-06-07T21:53:20.967Z,92.60
2019-06-07T21:56:09.424Z,93.00
2019-06-07T21:58:38.587Z,92.90
2019-06-07T22:04:55.071Z,93.10
2019-06-07T22:07:43.010Z,93.40
2019-06-07T22:13:24.379Z,93.70
2019-06-07T22:18:47.110Z,94.00
2019-06-07T22:21:16.000Z,94.10
2019-06-07T22:24:04.776Z,94.20
2019-06-07T22:26:53.714Z,94.30
2019-06-07T22:32:41.816Z,94.60
2019-06-07T22:35:30.032Z,94.90
2019-06-07T22:38:18.459Z,95.10
2019-06-07T22:41:09.346Z,95.20
2019-06-07T22:46:51.042Z,95.50
2019-06-07T22:49:56.763Z,95.70
2019-06-07T22:52:44.841Z,95.90
2019-06-07T22:59:37.011Z,96.20
2019-06-07T23:02:24.958Z,96.30
2019-06-07T23:05:13.021Z,96.80
2019-06-07T23:08:01.293Z,96.60
2019-06-07T23:10:49.395Z,96.80
2019-06-07T23:13:18.159Z,96.90
2019-06-07T23:15:47.219Z,97.00
2019-06-07T23:21:11.672Z,97.30
2019-06-07T23:23:41.702Z,97.40
2019-06-07T23:26:29.634Z,97.60
2019-06-07T23:29:18.647Z,97.60
2019-06-07T23:31:59.814Z,97.80
2019-06-07T23:34:40.714Z,97.90
2019-06-07T23:37:21.694Z,98.40
2019-06-07T23:40:02.355Z,98.20
2019-06-07T23:46:02.718Z,98.50
2019-06-07T23:48:31.698Z,98.60
2019-06-07T23:51:00.411Z,98.80
2019-06-07T23:53:48.746Z,98.90
2019-06-07T23:56:36.977Z,98.90
